Time;durP1;ratioP1;P1;durP2;ratioP2;P2;SDS_P1;SDS_P2;PMS_P1;PMS_P2;Temp;Humidity;BMP_temperature;BMP_pressure;BME280_temperature;BME280_humidity;BME280_pressure;Samples;Min_cycle;Max_cycle;Signal;HPM_P1;HPM_P2
2022/08/31 00:05:39;;;;;;;;;;;;;;;;;;5094590;28;19912;-85
2022/08/31 00:08:26;;;;;;;;;;;;;;;;;;5103339;28;19912;-86
2022/08/31 00:11:13;;;;;;;;;;;;;;;;;;5092781;28;19920;-85
2022/08/31 00:14:00;;;;;;;;;;;;;;;;;;5086691;28;19912;-84
2022/08/31 00:16:46;;;;;;;;;;;;;;;;;;5093309;28;19924;-86
2022/08/31 00:19:33;;;;;;;;;;;;;;;;;;5093229;28;19912;-85
2022/08/31 00:22:19;;;;;;;;;;;;;;;;;;5106811;28;19935;-86
2022/08/31 00:25:06;;;;;;;;;;;;;;;;;;5083733;28;19908;-86
2022/08/31 00:27:54;;;;;;;;;;;;;;;;;;5093548;28;19912;-85
2022/08/31 00:30:40;;;;;;;;;;;;;;;;;;5076269;28;19916;-84
2022/08/31 00:33:27;;;;;;;;;;;;;;;;;;5089457;28;19916;-85
2022/08/31 00:36:13;;;;;;;;;;;;;;;;;;5092515;28;19918;-84
2022/08/31 00:39:00;;;;;;;;;;;;;;;;;;5091584;28;20295;-85
2022/08/31 00:41:46;;;;;;;;;;;;;;;;;;5092509;28;19919;-85
2022/08/31 00:44:33;;;;;;;;;;;;;;;;;;5073965;28;20434;-86
2022/08/31 00:47:19;;;;;;;;;;;;;;;;;;5093328;28;19915;-85
2022/08/31 00:50:06;;;;;;;;;;;;;;;;;;5090468;28;19916;-85
2022/08/31 00:52:52;;;;;;;;;;;;;;;;;;5099872;28;19908;-86
2022/08/31 00:55:39;;;;;;;;;;;;;;;;;;5092490;28;20128;-86
2022/08/31 00:58:25;;;;;;;;;;;;;;;;;;5091218;28;19912;-89
2022/08/31 01:01:12;;;;;;;;;;;;;;;;;;5078397;28;19945;-88
2022/08/31 01:03:58;;;;;;;;;;;;;;;;;;5092566;28;19912;-88
2022/08/31 01:06:45;;;;;;;;;;;;;;;;;;5098430;28;19916;-88
2022/08/31 01:09:31;;;;;;;;;;;;;;;;;;5100893;28;19912;-88
2022/08/31 01:12:18;;;;;;;;;;;;;;;;;;5093115;28;20443;-86
2022/08/31 01:15:04;;;;;;;;;;;;;;;;;;5094355;28;19931;-86
2022/08/31 01:17:51;;;;;;;;;;;;;;;;;;5096717;28;19942;-86
2022/08/31 01:20:42;;;;;;;;;;;;;;;;;;5084077;28;19939;-85
2022/08/31 01:23:28;;;;;;;;;;;;;;;;;;5083135;28;19916;-83
2022/08/31 01:26:14;;;;;;;;;;;;;;;;;;5092509;28;19914;-85
2022/08/31 01:29:01;;;;;;;;;;;;;;;;;;5094557;28;19918;-85
2022/08/31 01:31:47;;;;;;;;;;;;;;;;;;5090938;28;19919;-86
2022/08/31 01:34:34;;;;;;;;;;;;;;;;;;5091305;28;19916;-86
2022/08/31 01:37:20;;;;;;;;;;;;;;;;;;5093050;28;19912;-85
2022/08/31 01:40:07;;;;;;;;;;;;;;;;;;5097682;27;19908;-85
2022/08/31 01:42:53;;;;;;;;;;;;;;;;;;5092157;28;19908;-85
2022/08/31 01:45:40;;;;;;;;;;;;;;;;;;5107815;27;19916;-86
2022/08/31 01:48:26;;;;;;;;;;;;;;;;;;5077974;28;19923;-86
2022/08/31 01:51:13;;;;;;;;;;;;;;;;;;5091045;28;19927;-86
2022/08/31 01:53:59;;;;;;;;;;;;;;;;;;5067317;28;19908;-86
2022/08/31 01:56:46;;;;;;;;;;;;;;;;;;5091685;28;19920;-86
2022/08/31 01:59:32;;;;;;;;;;;;;;;;;;5092628;28;20315;-85
2022/08/31 02:02:21;;;;;;;;;;;;;;;;;;5087453;28;19912;-86
2022/08/31 02:05:07;;;;;;;;;;;;;;;;;;5097102;28;19984;-86
2022/08/31 02:07:54;;;;;;;;;;;;;;;;;;5093254;28;20275;-87
2022/08/31 02:10:41;;;;;;;;;;;;;;;;;;5091930;28;19928;-86
2022/08/31 02:13:28;;;;;;;;;;;;;;;;;;5092169;28;19927;-87
2022/08/31 02:16:14;;;;;;;;;;;;;;;;;;5097687;28;19927;-86
2022/08/31 02:19:00;;;;;;;;;;;;;;;;;;5089483;28;19918;-86
2022/08/31 02:21:47;;;;;;;;;;;;;;;;;;5091361;28;19912;-86
2022/08/31 02:24:33;;;;;;;;;;;;;;;;;;5077113;28;19958;-86
2022/08/31 02:27:20;;;;;;;;;;;;;;;;;;5090247;28;19912;-86
2022/08/31 02:30:07;;;;;;;;;;;;;;;;;;5090830;28;19916;-85
2022/08/31 02:32:54;;;;;;;;;;;;;;;;;;5077589;28;20391;-85
2022/08/31 02:35:40;;;;;;;;;;;;;;;;;;5085849;28;19916;-84
2022/08/31 02:38:27;;;;;;;;;;;;;;;;;;5088733;28;19914;-81
2022/08/31 02:41:14;;;;;;;;;;;;;;;;;;5080688;28;19915;-81
2022/08/31 02:44:01;;;;;;;;;;;;;;;;;;5087334;28;19908;-82
2022/08/31 02:46:47;;;;;;;;;;;;;;;;;;5095082;28;20647;-85
2022/08/31 02:49:34;;;;;;;;;;;;;;;;;;5082237;28;19912;-86
2022/08/31 02:52:23;;;;;;;;;;;;;;;;;;5103801;28;19924;-85
2022/08/31 02:55:09;;;;;;;;;;;;;;;;;;5088514;28;20352;-85
2022/08/31 02:57:56;;;;;;;;;;;;;;;;;;5091556;28;20361;-85
2022/08/31 03:00:42;;;;;;;;;;;;;;;;;;5080577;28;19915;-85
2022/08/31 03:03:29;;;;;;;;;;;;;;;;;;5092044;28;19912;-84
2022/08/31 03:06:15;;;;;;;;;;;;;;;;;;5091510;28;20464;-85
2022/08/31 03:09:02;;;;;;;;;;;;;;;;;;5111072;27;20348;-85
2022/08/31 03:11:48;;;;;;;;;;;;;;;;;;5087730;28;19925;-84
2022/08/31 03:14:34;;;;;;;;;;;;;;;;;;5053183;28;20413;-84
2022/08/31 03:17:21;;;;;;;;;;;;;;;;;;5089992;28;19920;-85
2022/08/31 03:20:07;;;;;;;;;;;;;;;;;;5090796;28;20459;-85
2022/08/31 03:22:54;;;;;;;;;;;;;;;;;;5091265;28;19915;-85
2022/08/31 03:25:40;;;;;;;;;;;;;;;;;;5088617;28;19916;-87
2022/08/31 03:28:27;;;;;;;;;;;;;;;;;;5095462;28;19919;-86
2022/08/31 03:31:13;;;;;;;;;;;;;;;;;;5091479;28;19951;-87
2022/08/31 03:34:00;;;;;;;;;;;;;;;;;;5096793;28;19912;-87
2022/08/31 03:36:46;;;;;;;;;;;;;;;;;;5091320;28;19914;-88
2022/08/31 03:39:33;;;;;;;;;;;;;;;;;;5086020;28;20383;-88
2022/08/31 03:42:19;;;;;;;;;;;;;;;;;;5092494;28;19908;-88
2022/08/31 03:45:07;;;;;;;;;;;;;;;;;;5091271;28;19942;-88
2022/08/31 03:47:53;;;;;;;;;;;;;;;;;;5064790;28;19912;-84
2022/08/31 03:50:40;;;;;;;;;;;;;;;;;;5089091;28;19916;-85
2022/08/31 03:53:26;;;;;;;;;;;;;;;;;;5097485;28;19934;-85
2022/08/31 03:56:13;;;;;;;;;;;;;;;;;;5064390;28;19912;-85
2022/08/31 03:58:59;;;;;;;;;;;;;;;;;;5092006;28;19912;-85
2022/08/31 04:01:46;;;;;;;;;;;;;;;;;;5100394;28;19916;-82
2022/08/31 04:04:33;;;;;;;;;;;;;;;;;;5071237;28;19919;-82
2022/08/31 04:07:20;;;;;;;;;;;;;;;;;;5075983;28;20683;-82
2022/08/31 04:10:06;;;;;;;;;;;;;;;;;;5093049;28;20024;-81
2022/08/31 04:12:53;;;;;;;;;;;;;;;;;;5086324;28;19950;-83
2022/08/31 04:15:39;;;;;;;;;;;;;;;;;;5087872;28;19931;-83
2022/08/31 04:18:26;;;;;;;;;;;;;;;;;;5087228;28;20390;-81
2022/08/31 04:21:12;;;;;;;;;;;;;;;;;;5089586;28;19916;-81
2022/08/31 04:23:59;;;;;;;;;;;;;;;;;;5084266;28;19919;-81
2022/08/31 04:26:45;;;;;;;;;;;;;;;;;;5087764;28;20281;-80
2022/08/31 04:29:32;;;;;;;;;;;;;;;;;;5090336;28;19915;-78
2022/08/31 04:32:18;;;;;;;;;;;;;;;;;;5085492;28;19927;-82
2022/08/31 04:35:05;;;;;;;;;;;;;;;;;;5090382;28;19912;-80
2022/08/31 04:37:51;;;;;;;;;;;;;;;;;;5072300;28;20275;-81
2022/08/31 04:40:38;;;;;;;;;;;;;;;;;;5079476;28;19912;-82
2022/08/31 04:43:24;;;;;;;;;;;;;;;;;;5092678;28;19912;-79
2022/08/31 04:46:11;;;;;;;;;;;;;;;;;;5087454;28;19919;-80
2022/08/31 04:48:57;;;;;;;;;;;;;;;;;;5093213;28;19925;-81
2022/08/31 04:51:44;;;;;;;;;;;;;;;;;;5089900;28;20368;-82
2022/08/31 04:54:30;;;;;;;;;;;;;;;;;;5084571;28;19913;-83
2022/08/31 04:57:17;;;;;;;;;;;;;;;;;;5087212;28;19938;-83
2022/08/31 05:00:03;;;;;;;;;;;;;;;;;;5092166;28;19914;-82
2022/08/31 05:02:49;;;;;;;;;;;;;;;;;;5083281;28;20563;-82
2022/08/31 05:05:38;;;;;;;;;;;;;;;;;;5083498;28;19935;-83
2022/08/31 05:08:25;;;;;;;;;;;;;;;;;;5072816;28;19908;-83
2022/08/31 05:11:11;;;;;;;;;;;;;;;;;;5089140;28;19923;-83
2022/08/31 05:13:58;;;;;;;;;;;;;;;;;;5081185;28;19908;-83
2022/08/31 05:16:47;;;;;;;;;;;;;;;;;;5096549;28;19923;-85
2022/08/31 05:19:33;;;;;;;;;;;;;;;;;;5089555;28;19927;-80
2022/08/31 05:22:23;;;;;;;;;;;;;;;;;;5090291;28;19938;-83
2022/08/31 05:25:09;;;;;;;;;;;;;;;;;;5077340;28;19908;-82
2022/08/31 05:27:55;;;;;;;;;;;;;;;;;;5089249;28;19919;-81
2022/08/31 05:30:42;;;;;;;;;;;;;;;;;;5102447;27;19927;-81
2022/08/31 05:33:28;;;;;;;;;;;;;;;;;;5087581;28;19912;-81
2022/08/31 05:36:15;;;;;;;;;;;;;;;;;;5087675;28;20096;-81
2022/08/31 05:39:01;;;;;;;;;;;;;;;;;;5088592;28;20580;-80
2022/08/31 05:41:48;;;;;;;;;;;;;;;;;;5079953;28;19919;-81
2022/08/31 05:44:34;;;;;;;;;;;;;;;;;;5088801;28;19912;-82
2022/08/31 05:47:21;;;;;;;;;;;;;;;;;;5088546;28;19908;-82
2022/08/31 05:50:07;;;;;;;;;;;;;;;;;;5087854;28;19912;-80
2022/08/31 05:52:54;;;;;;;;;;;;;;;;;;5064805;28;19912;-80
2022/08/31 05:55:40;;;;;;;;;;;;;;;;;;5088576;28;19942;-82
2022/08/31 05:58:27;;;;;;;;;;;;;;;;;;5088921;28;19916;-82
2022/08/31 06:01:13;;;;;;;;;;;;;;;;;;5088856;28;19908;-81
2022/08/31 06:04:00;;;;;;;;;;;;;;;;;;5087827;28;19909;-81
2022/08/31 06:06:46;;;;;;;;;;;;;;;;;;5065552;28;19908;-80
2022/08/31 06:09:33;;;;;;;;;;;;;;;;;;5090704;28;19912;-82
2022/08/31 06:12:24;;;;;;;;;;;;;;;;;;5088412;28;20359;-82
2022/08/31 06:15:10;;;;;;;;;;;;;;;;;;5080211;28;20698;-81
2022/08/31 06:17:57;;;;;;;;;;;;;;;;;;5089649;27;19916;-82
2022/08/31 06:20:44;;;;;;;;;;;;;;;;;;5087599;28;20215;-81
2022/08/31 06:23:32;;;;;;;;;;;;;;;;;;5087867;28;20386;-82
2022/08/31 06:26:19;;;;;;;;;;;;;;;;;;5083560;28;19917;-86
2022/08/31 06:29:05;;;;;;;;;;;;;;;;;;5095813;28;19912;-86
2022/08/31 06:31:52;;;;;;;;;;;;;;;;;;5083919;28;19923;-86
2022/08/31 06:34:38;;;;;;;;;;;;;;;;;;5099410;28;19908;-85
2022/08/31 06:37:24;;;;;;;;;;;;;;;;;;5090286;28;19908;-77
2022/08/31 06:40:11;;;;;;;;;;;;;;;;;;5088948;28;19908;-77
2022/08/31 06:42:57;;;;;;;;;;;;;;;;;;5064581;28;20448;-78
2022/08/31 06:45:44;;;;;;;;;;;;;;;;;;5084304;28;19912;-78
2022/08/31 06:48:30;;;;;;;;;;;;;;;;;;5090468;28;20260;-79
2022/08/31 06:51:17;;;;;;;;;;;;;;;;;;5086485;28;19926;-78
2022/08/31 06:54:03;;;;;;;;;;;;;;;;;;5079818;28;19931;-78
2022/08/31 06:56:50;;;;;;;;;;;;;;;;;;5091264;28;19908;-77
2022/08/31 06:59:36;;;;;;;;;;;;;;;;;;5086134;28;19916;-77
2022/08/31 07:02:23;;;;;;;;;;;;;;;;;;5085622;28;20009;-77
2022/08/31 07:05:09;;;;;;;;;;;;;;;;;;5086410;28;20336;-77
2022/08/31 07:07:56;;;;;;;;;;;;;;;;;;5099254;28;20353;-78
2022/08/31 07:10:42;;;;;;;;;;;;;;;;;;5077867;28;20308;-78
2022/08/31 07:13:29;;;;;;;;;;;;;;;;;;5089378;28;19927;-77
2022/08/31 07:16:15;;;;;;;;;;;;;;;;;;5065946;28;20288;-77
2022/08/31 07:19:02;;;;;;;;;;;;;;;;;;5082924;28;19908;-78
2022/08/31 07:21:49;;;;;;;;;;;;;;;;;;5083996;28;19920;-77
2022/08/31 07:24:35;;;;;;;;;;;;;;;;;;5087531;28;19908;-77
2022/08/31 07:27:22;;;;;;;;;;;;;;;;;;5090992;28;19923;-78
2022/08/31 07:30:08;;;;;;;;;;;;;;;;;;5087226;28;19913;-78
2022/08/31 07:32:55;;;;;;;;;;;;;;;;;;5084046;28;20647;-78
2022/08/31 07:35:41;;;;;;;;;;;;;;;;;;5086783;28;19923;-76
2022/08/31 07:44:42;;;;;;;;;;;;;;;;;;5086825;28;19908;-78
2022/08/31 07:47:29;;;;;;;;;;;;;;;;;;5089285;28;19920;-77
2022/08/31 07:50:15;;;;;;;;;;;;;;;;;;5098018;27;19915;-77
2022/08/31 07:53:02;;;;;;;;;;;;;;;;;;5091200;28;20469;-78
2022/08/31 07:55:49;;;;;;;;;;;;;;;;;;5090780;28;19912;-77
2022/08/31 07:58:39;;;;;;;;;;;;;;;;;;5090763;28;19931;-77
2022/08/31 08:01:29;;;;;;;;;;;;;;;;;;5085852;28;20535;-78
2022/08/31 08:04:25;;;;;;;;;;;;;;;;;;5103090;27;19921;-77
2022/08/31 08:07:11;;;;;;;;;;;;;;;;;;5088226;28;20283;-77
2022/08/31 08:09:58;;;;;;;;;;;;;;;;;;5090728;28;20390;-80
2022/08/31 08:12:45;;;;;;;;;;;;;;;;;;5077801;28;20295;-78
2022/08/31 08:15:32;;;;;;;;;;;;;;;;;;5089690;28;19924;-76
2022/08/31 08:18:19;;;;;;;;;;;;;;;;;;5087494;28;19920;-77
2022/08/31 08:21:05;;;;;;;;;;;;;;;;;;5091233;28;19915;-78
2022/08/31 08:23:52;;;;;;;;;;;;;;;;;;5090520;28;19912;-78
2022/08/31 08:26:38;;;;;;;;;;;;;;;;;;5091213;28;19908;-78
2022/08/31 08:29:25;;;;;;;;;;;;;;;;;;5087143;28;19912;-78
2022/08/31 08:32:11;;;;;;;;;;;;;;;;;;5089162;28;19931;-78
2022/08/31 08:34:58;;;;;;;;;;;;;;;;;;5102768;28;20462;-79
2022/08/31 08:37:46;;;;;;;;;;;;;;;;;;5088873;28;19908;-78
2022/08/31 08:40:35;;;;;;;;;;;;;;;;;;5089073;28;19919;-78
2022/08/31 08:43:22;;;;;;;;;;;;;;;;;;5088764;28;19919;-79
2022/08/31 08:46:08;;;;;;;;;;;;;;;;;;5091659;28;20360;-79
2022/08/31 08:48:56;;;;;;;;;;;;;;;;;;5087107;28;19923;-78
2022/08/31 08:51:43;;;;;;;;;;;;;;;;;;5080296;28;20010;-77
2022/08/31 08:54:29;;;;;;;;;;;;;;;;;;5087804;28;20411;-79
2022/08/31 08:57:16;;;;;;;;;;;;;;;;;;5088454;28;20306;-78
2022/08/31 09:00:04;;;;;;;;;;;;;;;;;;5095048;28;19928;-78
2022/08/31 09:02:56;;;;;;;;;;;;;;;;;;5097917;28;19909;-78
2022/08/31 09:05:43;;;;;;;;;;;;;;;;;;5096883;28;20517;-78
2022/08/31 09:08:30;;;;;;;;;;;;;;;;;;5092479;28;19918;-79
2022/08/31 09:11:17;;;;;;;;;;;;;;;;;;5089045;28;19919;-78
2022/08/31 09:14:05;;;;;;;;;;;;;;;;;;5097194;28;19931;-79
2022/08/31 09:16:51;;;;;;;;;;;;;;;;;;5090641;28;19920;-76
2022/08/31 09:22:45;;;;;;;;;;;;;;;;;;5084818;28;19916;-77
2022/08/31 09:25:32;;;;;;;;;;;;;;;;;;5090839;28;19916;-78
2022/08/31 09:28:19;;;;;;;;;;;;;;;;;;5094339;28;19985;-78
2022/08/31 09:31:05;;;;;;;;;;;;;;;;;;5079995;28;19919;-78
2022/08/31 09:33:52;;;;;;;;;;;;;;;;;;5099634;28;19912;-78
2022/08/31 09:36:39;;;;;;;;;;;;;;;;;;5101900;27;19908;-78
2022/08/31 09:39:26;;;;;;;;;;;;;;;;;;5084661;28;19914;-77
2022/08/31 09:42:13;;;;;;;;;;;;;;;;;;5090726;28;19935;-77
2022/08/31 09:45:00;;;;;;;;;;;;;;;;;;5090229;28;19916;-77
2022/08/31 09:47:54;;;;;;;;;;;;;;;;;;5088480;28;19919;-78
2022/08/31 09:50:44;;;;;;;;;;;;;;;;;;5088808;28;19923;-79
2022/08/31 09:56:35;;;;;;;;;;;;;;;;;;5087382;28;20010;-79
2022/08/31 09:59:23;;;;;;;;;;;;;;;;;;5088738;28;19919;-79
2022/08/31 10:02:10;;;;;;;;;;;;;;;;;;5068743;28;19920;-79
2022/08/31 10:04:57;;;;;;;;;;;;;;;;;;5090999;28;19927;-79
2022/08/31 10:07:44;;;;;;;;;;;;;;;;;;5091672;28;19923;-77
2022/08/31 10:10:30;;;;;;;;;;;;;;;;;;5088676;28;19919;-78
2022/08/31 10:13:17;;;;;;;;;;;;;;;;;;5083366;28;19916;-82
2022/08/31 10:16:05;;;;;;;;;;;;;;;;;;5081363;28;19930;-78
2022/08/31 10:18:54;;;;;;;;;;;;;;;;;;5082056;28;20380;-79
2022/08/31 10:21:42;;;;;;;;;;;;;;;;;;5078904;28;20332;-79
2022/08/31 10:24:32;;;;;;;;;;;;;;;;;;5086974;28;19919;-78
2022/08/31 10:27:18;;;;;;;;;;;;;;;;;;5091695;28;19918;-78
2022/08/31 10:30:05;;;;;;;;;;;;;;;;;;5097070;28;19911;-79
2022/08/31 10:32:52;;;;;;;;;;;;;;;;;;5090131;28;19916;-79
2022/08/31 10:35:40;;;;;;;;;;;;;;;;;;5088064;27;20386;-79
2022/08/31 10:38:26;;;;;;;;;;;;;;;;;;5096013;28;19915;-78
2022/08/31 10:41:13;;;;;;;;;;;;;;;;;;5087838;28;19916;-80
2022/08/31 10:44:00;;;;;;;;;;;;;;;;;;5085159;28;20159;-78
2022/08/31 10:46:49;;;;;;;;;;;;;;;;;;5084912;28;19919;-79
2022/08/31 10:49:38;;;;;;;;;;;;;;;;;;5084903;28;20308;-78
2022/08/31 10:52:28;;;;;;;;;;;;;;;;;;5096332;28;19916;-78
2022/08/31 10:55:14;;;;;;;;;;;;;;;;;;5078703;28;19927;-79
2022/08/31 10:58:01;;;;;;;;;;;;;;;;;;5087490;28;19908;-78
2022/08/31 11:00:48;;;;;;;;;;;;;;;;;;5070204;28;19908;-78
2022/08/31 11:03:34;;;;;;;;;;;;;;;;;;5086805;28;19908;-79
2022/08/31 11:06:21;;;;;;;;;;;;;;;;;;5091616;28;19912;-78
2022/08/31 11:09:07;;;;;;;;;;;;;;;;;;5080528;28;19922;-78
2022/08/31 11:11:56;;;;;;;;;;;;;;;;;;5081943;28;19939;-78
2022/08/31 11:14:44;;;;;;;;;;;;;;;;;;5087875;28;19951;-78
2022/08/31 11:17:31;;;;;;;;;;;;;;;;;;5091653;28;20401;-78
2022/08/31 11:20:18;;;;;;;;;;;;;;;;;;5089610;28;19919;-77
2022/08/31 11:23:05;;;;;;;;;;;;;;;;;;5092718;28;19918;-78
2022/08/31 11:25:51;;;;;;;;;;;;;;;;;;5088724;28;19914;-78
2022/08/31 11:28:38;;;;;;;;;;;;;;;;;;5093225;28;19909;-78
2022/08/31 11:31:24;;;;;;;;;;;;;;;;;;5092163;28;19919;-78
2022/08/31 11:34:12;;;;;;;;;;;;;;;;;;5092438;28;19914;-78
2022/08/31 11:37:03;;;;;;;;;;;;;;;;;;5094867;28;19908;-78
2022/08/31 11:39:50;;;;;;;;;;;;;;;;;;5092058;28;19927;-78
2022/08/31 11:42:36;;;;;;;;;;;;;;;;;;5097330;28;19916;-78
2022/08/31 11:45:23;;;;;;;;;;;;;;;;;;5099962;28;19915;-78
2022/08/31 11:48:11;;;;;;;;;;;;;;;;;;5086485;28;20398;-78
2022/08/31 11:50:57;;;;;;;;;;;;;;;;;;5090051;28;20265;-78
2022/08/31 11:53:48;;;;;;;;;;;;;;;;;;5085217;28;19919;-78
2022/08/31 11:56:34;;;;;;;;;;;;;;;;;;5081397;28;20535;-78
2022/08/31 11:59:21;;;;;;;;;;;;;;;;;;5093839;28;19908;-78
2022/08/31 12:02:07;;;;;;;;;;;;;;;;;;5073251;28;19908;-78
2022/08/31 12:04:56;;;;;;;;;;;;;;;;;;5089966;28;19914;-78
2022/08/31 12:07:42;;;;;;;;;;;;;;;;;;5093366;28;19912;-78
2022/08/31 12:10:29;;;;;;;;;;;;;;;;;;5094947;28;19908;-78
2022/08/31 12:13:18;;;;;;;;;;;;;;;;;;5093920;28;19927;-78
2022/08/31 12:16:05;;;;;;;;;;;;;;;;;;5093257;28;19928;-78
2022/08/31 12:18:52;;;;;;;;;;;;;;;;;;5081279;28;20271;-79
2022/08/31 12:24:43;;;;;;;;;;;;;;;;;;5085104;28;19919;-78
2022/08/31 12:27:30;;;;;;;;;;;;;;;;;;5076900;28;19950;-78
2022/08/31 12:30:16;;;;;;;;;;;;;;;;;;5100110;28;19907;-78
2022/08/31 12:33:03;;;;;;;;;;;;;;;;;;5085395;28;20332;-78
2022/08/31 12:35:50;;;;;;;;;;;;;;;;;;5094945;28;19915;-78
2022/08/31 12:38:36;;;;;;;;;;;;;;;;;;5072611;28;19908;-78
2022/08/31 12:41:22;;;;;;;;;;;;;;;;;;5089345;28;19912;-77
2022/08/31 12:44:09;;;;;;;;;;;;;;;;;;5089229;28;19916;-77
2022/08/31 12:46:56;;;;;;;;;;;;;;;;;;5089270;28;19916;-77
2022/08/31 12:49:43;;;;;;;;;;;;;;;;;;5084751;28;19912;-78
2022/08/31 12:52:29;;;;;;;;;;;;;;;;;;5082269;28;19923;-77
2022/08/31 12:55:16;;;;;;;;;;;;;;;;;;5089670;28;20316;-77
2022/08/31 12:58:02;;;;;;;;;;;;;;;;;;5089530;28;19912;-78
2022/08/31 13:00:49;;;;;;;;;;;;;;;;;;5088299;28;20398;-76
2022/08/31 13:03:35;;;;;;;;;;;;;;;;;;5090289;28;19908;-76
2022/08/31 13:06:21;;;;;;;;;;;;;;;;;;5074053;28;19908;-78
2022/08/31 13:09:08;;;;;;;;;;;;;;;;;;5098194;28;19908;-78
2022/08/31 13:11:54;;;;;;;;;;;;;;;;;;5089886;28;19928;-78
2022/08/31 13:14:41;;;;;;;;;;;;;;;;;;5086946;28;19923;-77
2022/08/31 13:17:27;;;;;;;;;;;;;;;;;;5090455;28;19931;-78
2022/08/31 13:20:14;;;;;;;;;;;;;;;;;;5089039;28;20076;-77
2022/08/31 13:23:09;;;;;;;;;;;;;;;;;;5088728;28;19927;-77
2022/08/31 13:25:55;;;;;;;;;;;;;;;;;;5088881;28;20371;-77
2022/08/31 13:28:42;;;;;;;;;;;;;;;;;;5085179;28;19926;-79
2022/08/31 13:31:29;;;;;;;;;;;;;;;;;;5096504;28;19912;-76
2022/08/31 13:34:15;;;;;;;;;;;;;;;;;;5090358;28;20416;-78
2022/08/31 13:37:02;;;;;;;;;;;;;;;;;;5089182;28;19915;-77
2022/08/31 13:39:48;;;;;;;;;;;;;;;;;;5086447;28;20368;-77
2022/08/31 13:42:41;;;;;;;;;;;;;;;;;;5074200;28;19908;-78
2022/08/31 13:45:29;;;;;;;;;;;;;;;;;;5087438;28;19908;-77
2022/08/31 13:48:15;;;;;;;;;;;;;;;;;;5088487;28;19909;-77
2022/08/31 13:51:02;;;;;;;;;;;;;;;;;;5084391;28;19908;-77
2022/08/31 13:53:48;;;;;;;;;;;;;;;;;;5091427;28;19920;-77
2022/08/31 13:59:40;;;;;;;;;;;;;;;;;;5089009;28;19915;-77
2022/08/31 14:02:27;;;;;;;;;;;;;;;;;;5087633;28;20287;-77
2022/08/31 14:05:13;;;;;;;;;;;;;;;;;;5087801;28;19915;-77
2022/08/31 14:08:03;;;;;;;;;;;;;;;;;;5084840;28;20013;-77
2022/08/31 14:10:50;;;;;;;;;;;;;;;;;;5088118;28;19908;-78
2022/08/31 14:13:37;;;;;;;;;;;;;;;;;;5083825;28;20244;-77
2022/08/31 14:16:29;;;;;;;;;;;;;;;;;;5087757;28;19927;-77
2022/08/31 14:19:16;;;;;;;;;;;;;;;;;;5090091;28;19912;-78
2022/08/31 14:22:04;;;;;;;;;;;;;;;;;;5080782;28;19916;-78
2022/08/31 14:24:50;;;;;;;;;;;;;;;;;;5064146;28;19918;-78
2022/08/31 14:27:40;;;;;;;;;;;;;;;;;;5097791;27;19919;-78
2022/08/31 14:30:26;;;;;;;;;;;;;;;;;;5086702;28;19912;-78
2022/08/31 14:33:16;;;;;;;;;;;;;;;;;;5086843;28;19920;-77
2022/08/31 14:36:12;;;;;;;;;;;;;;;;;;5095318;28;19912;-78
2022/08/31 14:38:58;;;;;;;;;;;;;;;;;;5080308;28;20408;-78
2022/08/31 14:41:45;;;;;;;;;;;;;;;;;;5076144;28;20470;-78
2022/08/31 14:44:31;;;;;;;;;;;;;;;;;;5085255;28;19923;-77
2022/08/31 14:47:20;;;;;;;;;;;;;;;;;;5062720;28;20299;-78
2022/08/31 14:50:06;;;;;;;;;;;;;;;;;;5076558;28;19919;-78
2022/08/31 14:52:54;;;;;;;;;;;;;;;;;;5082758;28;19928;-77
2022/08/31 14:55:40;;;;;;;;;;;;;;;;;;5087583;28;19934;-79
2022/08/31 14:58:27;;;;;;;;;;;;;;;;;;5096764;27;19916;-82
2022/08/31 15:01:15;;;;;;;;;;;;;;;;;;5083153;28;19962;-83
2022/08/31 15:04:02;;;;;;;;;;;;;;;;;;5085978;28;19919;-82
2022/08/31 15:06:49;;;;;;;;;;;;;;;;;;5093467;28;19919;-85
2022/08/31 15:09:41;;;;;;;;;;;;;;;;;;5089144;28;19912;-82
2022/08/31 15:12:28;;;;;;;;;;;;;;;;;;5084247;28;20387;-82
2022/08/31 15:15:18;;;;;;;;;;;;;;;;;;5089761;28;19920;-81
2022/08/31 15:18:05;;;;;;;;;;;;;;;;;;5081815;28;20429;-81
2022/08/31 15:20:51;;;;;;;;;;;;;;;;;;5072941;28;19916;-78
2022/08/31 15:23:40;;;;;;;;;;;;;;;;;;5086058;28;20336;-78
2022/08/31 15:26:28;;;;;;;;;;;;;;;;;;5084712;28;20252;-79
2022/08/31 15:29:15;;;;;;;;;;;;;;;;;;5081483;28;19912;-80
2022/08/31 15:32:01;;;;;;;;;;;;;;;;;;5087857;28;19927;-79
2022/08/31 15:34:57;;;;;;;;;;;;;;;;;;5081960;28;19923;-80
2022/08/31 15:37:44;;;;;;;;;;;;;;;;;;5089789;28;20484;-79
2022/08/31 15:40:36;;;;;;;;;;;;;;;;;;5075168;28;19915;-79
2022/08/31 15:43:22;;;;;;;;;;;;;;;;;;5081825;28;19909;-80
2022/08/31 15:46:09;;;;;;;;;;;;;;;;;;5079217;28;19908;-81
2022/08/31 15:48:55;;;;;;;;;;;;;;;;;;5090596;28;19907;-81
2022/08/31 15:51:45;;;;;;;;;;;;;;;;;;5084556;28;19920;-81
2022/08/31 15:54:34;;;;;;;;;;;;;;;;;;5076989;28;19912;-81
2022/08/31 15:57:22;;;;;;;;;;;;;;;;;;5085195;28;19908;-81
2022/08/31 16:00:12;;;;;;;;;;;;;;;;;;5071312;28;19912;-81
2022/08/31 16:03:00;;;;;;;;;;;;;;;;;;5087999;28;19915;-77
2022/08/31 16:05:47;;;;;;;;;;;;;;;;;;5079852;28;19923;-79
2022/08/31 16:08:33;;;;;;;;;;;;;;;;;;5086632;28;19916;-78
2022/08/31 16:11:20;;;;;;;;;;;;;;;;;;5083493;28;19922;-80
2022/08/31 16:14:10;;;;;;;;;;;;;;;;;;5084584;28;19957;-77
2022/08/31 16:16:58;;;;;;;;;;;;;;;;;;5088693;28;19920;-77
2022/08/31 16:19:44;;;;;;;;;;;;;;;;;;5106088;27;19922;-77
2022/08/31 16:22:31;;;;;;;;;;;;;;;;;;5093500;28;19916;-78
2022/08/31 16:25:18;;;;;;;;;;;;;;;;;;5096747;28;19915;-78
2022/08/31 16:28:04;;;;;;;;;;;;;;;;;;5094686;28;19931;-79
2022/08/31 16:30:51;;;;;;;;;;;;;;;;;;5091364;28;19922;-79
2022/08/31 16:33:39;;;;;;;;;;;;;;;;;;5096627;28;19920;-78
2022/08/31 16:36:25;;;;;;;;;;;;;;;;;;5091167;28;19908;-79
2022/08/31 16:39:12;;;;;;;;;;;;;;;;;;5088781;28;20383;-79
2022/08/31 16:41:58;;;;;;;;;;;;;;;;;;5103742;27;19916;-79
2022/08/31 16:44:45;;;;;;;;;;;;;;;;;;5091058;28;20607;-79
2022/08/31 16:47:32;;;;;;;;;;;;;;;;;;5072817;28;20375;-79
2022/08/31 16:50:18;;;;;;;;;;;;;;;;;;5087798;28;19915;-79
2022/08/31 16:53:05;;;;;;;;;;;;;;;;;;5089804;28;19924;-80
2022/08/31 16:55:52;;;;;;;;;;;;;;;;;;5097221;28;19926;-78
2022/08/31 16:58:38;;;;;;;;;;;;;;;;;;5100105;27;19912;-80
2022/08/31 17:01:25;;;;;;;;;;;;;;;;;;5080774;28;19912;-77
2022/08/31 17:04:11;;;;;;;;;;;;;;;;;;5098933;28;19938;-77
2022/08/31 17:06:58;;;;;;;;;;;;;;;;;;5090520;28;19927;-77
2022/08/31 17:09:44;;;;;;;;;;;;;;;;;;5073380;28;19919;-77
2022/08/31 17:12:31;;;;;;;;;;;;;;;;;;5089083;28;19944;-76
2022/08/31 17:15:19;;;;;;;;;;;;;;;;;;5087482;28;19920;-78
2022/08/31 17:18:06;;;;;;;;;;;;;;;;;;5084101;28;19915;-78
2022/08/31 17:20:52;;;;;;;;;;;;;;;;;;5070152;28;19917;-79
2022/08/31 17:23:38;;;;;;;;;;;;;;;;;;5074225;28;20514;-81
2022/08/31 17:26:26;;;;;;;;;;;;;;;;;;5092777;28;19912;-85
2022/08/31 17:29:12;;;;;;;;;;;;;;;;;;5089110;28;20451;-79
2022/08/31 17:31:59;;;;;;;;;;;;;;;;;;5096540;28;20004;-80
2022/08/31 17:34:50;;;;;;;;;;;;;;;;;;5091061;28;20288;-84
2022/08/31 17:37:36;;;;;;;;;;;;;;;;;;5078615;28;20679;-84
2022/08/31 17:40:24;;;;;;;;;;;;;;;;;;5093796;28;19912;-83
2022/08/31 17:43:13;;;;;;;;;;;;;;;;;;5090058;28;19935;-83
2022/08/31 17:46:00;;;;;;;;;;;;;;;;;;5087387;28;20583;-83
2022/08/31 17:48:46;;;;;;;;;;;;;;;;;;5093886;28;20403;-78
2022/08/31 17:51:33;;;;;;;;;;;;;;;;;;5083579;28;20272;-79
2022/08/31 17:54:20;;;;;;;;;;;;;;;;;;5081141;28;20364;-80
2022/08/31 17:57:06;;;;;;;;;;;;;;;;;;5091870;28;19908;-79
2022/08/31 17:59:53;;;;;;;;;;;;;;;;;;5084725;28;19922;-81
2022/08/31 18:02:40;;;;;;;;;;;;;;;;;;5089541;28;19936;-82
2022/08/31 18:05:26;;;;;;;;;;;;;;;;;;5093371;28;19919;-80
2022/08/31 18:08:13;;;;;;;;;;;;;;;;;;5092164;28;19915;-80
2022/08/31 18:10:59;;;;;;;;;;;;;;;;;;5088180;28;19914;-81
2022/08/31 18:13:46;;;;;;;;;;;;;;;;;;5087100;28;19916;-81
2022/08/31 18:16:32;;;;;;;;;;;;;;;;;;5084140;28;20411;-81
2022/08/31 18:19:19;;;;;;;;;;;;;;;;;;5087682;28;19916;-74
2022/08/31 18:22:05;;;;;;;;;;;;;;;;;;5089704;28;19909;-76
2022/08/31 18:24:52;;;;;;;;;;;;;;;;;;5091246;28;19912;-80
2022/08/31 18:27:38;;;;;;;;;;;;;;;;;;5092167;28;19922;-80
2022/08/31 18:30:25;;;;;;;;;;;;;;;;;;5094875;28;20287;-78
2022/08/31 18:33:12;;;;;;;;;;;;;;;;;;5092623;28;19935;-78
2022/08/31 18:35:58;;;;;;;;;;;;;;;;;;5091617;28;21499;-78
2022/08/31 18:38:45;;;;;;;;;;;;;;;;;;5087395;28;19908;-78
2022/08/31 18:47:45;;;;;;;;;;;;;;;;;;5097302;28;19926;-78
2022/08/31 18:50:32;;;;;;;;;;;;;;;;;;5088132;28;19928;-79
2022/08/31 18:53:19;;;;;;;;;;;;;;;;;;5081882;28;19926;-77
2022/08/31 18:56:05;;;;;;;;;;;;;;;;;;5095362;28;19915;-79
2022/08/31 18:58:52;;;;;;;;;;;;;;;;;;5099844;28;19919;-77
2022/08/31 19:01:38;;;;;;;;;;;;;;;;;;5093899;28;19918;-79
2022/08/31 19:04:24;;;;;;;;;;;;;;;;;;5082658;28;19912;-80
2022/08/31 19:07:11;;;;;;;;;;;;;;;;;;5088260;28;19920;-78
2022/08/31 19:09:57;;;;;;;;;;;;;;;;;;5080879;28;20301;-79
2022/08/31 19:12:44;;;;;;;;;;;;;;;;;;5086303;28;19931;-77
2022/08/31 19:15:30;;;;;;;;;;;;;;;;;;5092078;28;20292;-79
2022/08/31 19:18:17;;;;;;;;;;;;;;;;;;5081081;28;19930;-78
2022/08/31 19:21:03;;;;;;;;;;;;;;;;;;5094391;28;19912;-81
2022/08/31 19:23:50;;;;;;;;;;;;;;;;;;5081510;28;19916;-77
2022/08/31 19:26:37;;;;;;;;;;;;;;;;;;5087993;28;19923;-78
2022/08/31 19:29:24;;;;;;;;;;;;;;;;;;5086800;28;19916;-78